Time;durP1;ratioP1;P1;durP2;ratioP2;P2;SDS_P1;SDS_P2;PMS_P1;PMS_P2;Temp;Humidity;BMP_temperature;BMP_pressure;BME280_temperature;BME280_humidity;BME280_pressure;Samples;Min_cycle;Max_cycle;Signal;HPM_P1;HPM_P2
2023/01/14 00:01:05;;;;;;;14.75;1.83;;;8.60;99.90;;;;;;5071530;28;20028;-37
2023/01/14 00:03:31;;;;;;;16.60;2.67;;;8.60;99.90;;;;;;5071160;28;20028;-38
2023/01/14 00:05:58;;;;;;;8.20;2.25;;;8.60;99.90;;;;;;5072830;28;20082;-32
2023/01/14 00:08:28;;;;;;;6.22;1.40;;;8.60;99.90;;;;;;5070497;28;20034;-36
2023/01/14 00:10:54;;;;;;;8.25;1.42;;;8.50;99.90;;;;;;5070883;28;20032;-37
2023/01/14 00:13:20;;;;;;;10.23;2.08;;;8.50;99.90;;;;;;5071377;28;20395;-33
2023/01/14 00:15:56;;;;;;;11.25;2.25;;;8.40;99.90;;;;;;5072282;28;20020;-35
2023/01/14 00:18:23;;;;;;;11.65;1.50;;;8.40;99.90;;;;;;5073383;28;20033;-32
2023/01/14 00:21:06;;;;;;;11.30;1.90;;;8.40;99.90;;;;;;5071298;28;20039;-32
2023/01/14 00:23:34;;;;;;;5.68;1.08;;;8.40;99.90;;;;;;5067414;28;20070;-34
2023/01/14 00:26:13;;;;;;;15.18;2.88;;;8.40;99.90;;;;;;5071838;28;20108;-36
2023/01/14 00:28:42;;;;;;;12.85;1.70;;;8.40;99.90;;;;;;5070842;28;20111;-37
2023/01/14 00:31:11;;;;;;;15.35;1.55;;;8.50;99.90;;;;;;5072477;28;20032;-36
2023/01/14 00:33:37;;;;;;;14.25;1.13;;;8.50;99.90;;;;;;5069854;28;20032;-42
2023/01/14 00:36:05;;;;;;;11.80;1.52;;;8.50;99.90;;;;;;5073306;28;20024;-43
2023/01/14 00:38:30;;;;;;;11.10;1.80;;;8.40;99.90;;;;;;5072164;28;20391;-41
2023/01/14 00:41:18;;;;;;;11.95;2.63;;;8.40;99.90;;;;;;5071489;28;20035;-38
2023/01/14 00:43:46;;;;;;;20.10;1.48;;;8.40;99.90;;;;;;5071160;28;20032;-35
2023/01/14 00:46:15;;;;;;;13.30;1.90;;;8.30;99.90;;;;;;5069630;28;20097;-40
2023/01/14 00:48:42;;;;;;;5.90;1.23;;;8.30;99.90;;;;;;5064608;28;20024;-41
2023/01/14 00:51:08;;;;;;;11.82;1.85;;;8.30;99.90;;;;;;5071494;28;20032;-41
2023/01/14 00:53:35;;;;;;;10.52;1.25;;;8.30;99.90;;;;;;5062867;28;20049;-38
2023/01/14 00:56:01;;;;;;;7.93;1.38;;;8.20;99.90;;;;;;5069969;28;20028;-42
2023/01/14 00:58:27;;;;;;;18.83;2.22;;;8.20;99.90;;;;;;5073252;28;20487;-41
2023/01/14 01:00:53;;;;;;;8.80;2.22;;;8.20;99.90;;;;;;5065599;28;20453;-41
2023/01/14 01:03:20;;;;;;;7.30;1.90;;;8.10;99.90;;;;;;5062120;28;20024;-40
2023/01/14 01:05:46;;;;;;;8.20;1.23;;;8.10;99.90;;;;;;5068785;28;20505;-41
2023/01/14 01:08:15;;;;;;;9.88;1.73;;;8.00;99.90;;;;;;5069116;28;20103;-42
2023/01/14 01:10:42;;;;;;;13.73;2.28;;;8.00;99.90;;;;;;5070680;28;20033;-40
2023/01/14 01:13:09;;;;;;;8.67;1.27;;;8.00;99.90;;;;;;5068847;28;20531;-40
2023/01/14 01:15:36;;;;;;;6.47;1.42;;;7.90;99.90;;;;;;5063865;28;20476;-43
2023/01/14 01:18:02;;;;;;;8.85;1.85;;;7.90;99.90;;;;;;5071981;28;20036;-39
2023/01/14 01:20:29;;;;;;;16.40;1.60;;;7.90;99.90;;;;;;5074322;28;20115;-41
2023/01/14 01:22:54;;;;;;;7.47;1.23;;;7.90;99.90;;;;;;5072019;28;20082;-41
2023/01/14 01:25:20;;;;;;;13.88;1.75;;;7.90;99.90;;;;;;5069794;28;20397;-39
2023/01/14 01:27:46;;;;;;;7.45;1.40;;;7.90;99.90;;;;;;5071787;28;20024;-40
2023/01/14 01:30:12;;;;;;;8.05;1.70;;;7.90;99.90;;;;;;5072504;28;20468;-40
2023/01/14 01:32:38;;;;;;;18.50;2.38;;;7.90;99.90;;;;;;5071649;28;20032;-39
2023/01/14 01:35:04;;;;;;;19.40;1.65;;;7.90;99.90;;;;;;5069719;28;20021;-41
2023/01/14 01:37:30;;;;;;;11.38;2.00;;;7.90;99.90;;;;;;5072641;28;20083;-41
2023/01/14 01:39:56;;;;;;;13.60;3.17;;;7.90;99.90;;;;;;5070142;28;20388;-38
2023/01/14 01:42:23;;;;;;;13.10;1.48;;;7.90;99.90;;;;;;5069074;28;20044;-39
2023/01/14 01:44:48;;;;;;;8.30;1.90;;;8.00;99.90;;;;;;5070761;28;20028;-40
2023/01/14 01:47:16;;;;;;;16.08;2.05;;;8.00;99.90;;;;;;5072357;28;20032;-42
2023/01/14 01:49:42;;;;;;;13.17;1.63;;;8.00;99.90;;;;;;5070714;28;20033;-42
2023/01/14 01:52:28;;;;;;;14.88;1.90;;;8.00;99.90;;;;;;5071266;28;20031;-40
2023/01/14 01:54:58;;;;;;;18.38;2.50;;;8.00;99.90;;;;;;5072430;28;20032;-40
2023/01/14 01:57:24;;;;;;;19.48;2.33;;;7.90;99.90;;;;;;5072382;28;20520;-40
2023/01/14 01:59:56;;;;;;;17.30;2.40;;;7.90;99.90;;;;;;5071775;28;20032;-43
2023/01/14 02:02:23;;;;;;;15.85;2.38;;;7.80;99.90;;;;;;5071705;28;20386;-40
2023/01/14 02:04:48;;;;;;;14.18;2.00;;;7.70;99.90;;;;;;5071338;28;20514;-40
2023/01/14 02:07:21;;;;;;;19.30;3.97;;;7.70;99.90;;;;;;5070390;28;20028;-35
2023/01/14 02:10:01;;;;;;;7.65;1.67;;;7.60;99.90;;;;;;5073592;28;20055;-43
2023/01/14 02:12:46;;;;;;;11.73;2.13;;;7.50;99.90;;;;;;5073797;28;20571;-40
2023/01/14 02:15:38;;;;;;;13.80;2.55;;;7.50;99.90;;;;;;5075168;28;20033;-41
2023/01/14 02:18:28;;;;;;;12.75;1.45;;;7.40;99.90;;;;;;5081748;28;20039;-40
2023/01/14 02:21:20;;;;;;;15.45;2.28;;;7.40;99.90;;;;;;5081202;28;20475;-44
2023/01/14 02:24:09;;;;;;;14.57;1.70;;;7.40;99.90;;;;;;5076088;28;20477;-41
2023/01/14 02:26:53;;;;;;;17.95;1.27;;;7.40;99.90;;;;;;5075107;28;20063;-41
2023/01/14 02:29:21;;;;;;;14.73;1.75;;;7.30;99.90;;;;;;5075934;28;20387;-40
2023/01/14 02:32:08;;;;;;;18.83;3.03;;;7.30;99.90;;;;;;5074961;28;20373;-40
2023/01/14 02:35:08;;;;;;;17.17;1.40;;;7.20;99.90;;;;;;5072438;28;20507;-41
2023/01/14 02:37:45;;;;;;;10.10;1.67;;;7.20;99.90;;;;;;5071088;28;20076;-39
2023/01/14 02:40:25;;;;;;;17.58;1.58;;;7.20;99.90;;;;;;5075772;28;20486;-41
2023/01/14 02:45:54;;;;;;;29.17;2.05;;;7.10;99.90;;;;;;5074376;28;20044;-36
2023/01/14 02:48:22;;;;;;;15.13;2.05;;;7.00;99.90;;;;;;5075280;28;20036;-37
2023/01/14 02:50:48;;;;;;;12.60;2.25;;;7.00;99.90;;;;;;5074673;28;20550;-38
2023/01/14 02:53:17;;;;;;;18.02;1.98;;;7.00;99.90;;;;;;5070309;28;20523;-35
2023/01/14 02:55:43;;;;;;;18.73;1.75;;;6.90;99.90;;;;;;5075185;28;20056;-35
2023/01/14 02:58:38;;;;;;;18.77;2.50;;;6.90;99.90;;;;;;5075366;28;20016;-35
2023/01/14 03:01:12;;;;;;;8.52;1.60;;;7.00;99.90;;;;;;5066018;28;20024;-38
2023/01/14 03:04:00;;;;;;;17.35;1.73;;;6.90;99.90;;;;;;5075083;28;20056;-35
2023/01/14 03:06:50;;;;;;;7.70;1.55;;;6.90;99.90;;;;;;5073312;28;20484;-35
2023/01/14 03:09:26;;;;;;;11.98;1.52;;;6.80;99.90;;;;;;5068877;28;20024;-35
2023/01/14 03:12:17;;;;;;;18.10;2.85;;;6.80;99.90;;;;;;5074707;28;20025;-35
2023/01/14 03:15:09;;;;;;;29.17;4.38;;;6.80;99.90;;;;;;5062487;28;20102;-41
2023/01/14 03:17:39;;;;;;;9.93;1.70;;;6.70;99.90;;;;;;5083402;28;20396;-37
2023/01/14 03:20:07;;;;;;;16.40;2.17;;;6.80;99.90;;;;;;5073445;28;20020;-42
2023/01/14 03:22:34;;;;;;;19.63;2.17;;;6.80;99.90;;;;;;5053682;28;20049;-41
2023/01/14 03:25:02;;;;;;;23.08;2.30;;;6.80;99.90;;;;;;5064454;28;20423;-43
2023/01/14 03:27:32;;;;;;;17.73;2.47;;;6.80;99.90;;;;;;5074298;28;20558;-41
2023/01/14 03:30:13;;;;;;;22.58;4.65;;;6.80;99.90;;;;;;5072679;28;20389;-45
2023/01/14 03:33:06;;;;;;;18.38;2.83;;;6.80;99.90;;;;;;5054577;28;20570;-41
2023/01/14 03:35:36;;;;;;;20.77;2.50;;;6.90;99.90;;;;;;5059936;28;20037;-41
2023/01/14 03:38:24;;;;;;;11.43;2.80;;;6.80;99.90;;;;;;5073259;28;20444;-42
2023/01/14 03:40:51;;;;;;;12.95;2.60;;;6.80;99.90;;;;;;5074275;28;20120;-40
2023/01/14 03:44:02;;;;;;;7.17;1.70;;;6.80;99.90;;;;;;5073566;28;20024;-40
2023/01/14 03:46:28;;;;;;;23.08;2.67;;;6.70;99.90;;;;;;5042018;28;20132;-43
2023/01/14 03:48:53;;;;;;;17.95;2.78;;;6.80;99.90;;;;;;5054207;28;20090;-44
2023/01/14 03:51:58;;;;;;;20.55;4.25;;;6.70;99.90;;;;;;5069323;28;20029;-43
2023/01/14 03:54:38;;;;;;;20.88;3.28;;;6.80;99.90;;;;;;5074139;28;20452;-41
2023/01/14 03:57:14;;;;;;;20.35;2.60;;;6.80;99.90;;;;;;5074053;28;20154;-41
2023/01/14 04:00:00;;;;;;;14.77;2.85;;;6.70;99.90;;;;;;5072665;28;20504;-38
2023/01/14 04:02:28;;;;;;;19.02;4.68;;;6.70;99.90;;;;;;5053988;28;20166;-43
2023/01/14 04:04:55;;;;;;;23.88;3.45;;;6.80;99.90;;;;;;5055281;28;20017;-43
2023/01/14 04:07:22;;;;;;;15.60;3.15;;;6.70;99.90;;;;;;5073768;28;20415;-42
2023/01/14 04:09:47;;;;;;;25.13;3.47;;;6.70;99.90;;;;;;5073019;28;20469;-34
2023/01/14 04:12:13;;;;;;;28.05;4.38;;;6.70;99.90;;;;;;5073390;28;20027;-35
2023/01/14 04:17:23;;;;;;;22.27;3.50;;;6.70;99.90;;;;;;5053883;28;20024;-38
2023/01/14 04:19:48;;;;;;;14.77;2.67;;;6.70;99.90;;;;;;5053543;28;20025;-35
2023/01/14 04:22:14;;;;;;;23.52;3.55;;;6.70;99.90;;;;;;5070100;28;20111;-35
2023/01/14 04:24:40;;;;;;;20.73;3.42;;;6.60;99.90;;;;;;5073457;28;20027;-38
2023/01/14 04:27:06;;;;;;;24.30;2.78;;;6.60;99.90;;;;;;5073701;28;20322;-37
2023/01/14 04:29:31;;;;;;;15.57;2.47;;;6.60;99.90;;;;;;5073257;28;20271;-36
2023/01/14 04:31:57;;;;;;;21.40;3.50;;;6.70;99.90;;;;;;5071133;28;20024;-36
2023/01/14 04:34:22;;;;;;;25.02;4.05;;;6.60;99.90;;;;;;5073225;28;20456;-35
2023/01/14 04:36:48;;;;;;;26.60;3.05;;;6.70;99.90;;;;;;5071679;28;20104;-39
2023/01/14 04:39:13;;;;;;;23.80;3.40;;;6.70;99.90;;;;;;5072868;28;20050;-37
2023/01/14 04:44:23;;;;;;;28.98;3.35;;;6.70;99.90;;;;;;5066631;28;20047;-35
2023/01/14 04:46:49;;;;;;;19.65;3.47;;;6.70;99.90;;;;;;5071846;28;20024;-34
2023/01/14 04:49:14;;;;;;;18.25;2.05;;;6.80;99.90;;;;;;5073008;28;20395;-39
2023/01/14 04:51:40;;;;;;;21.10;3.83;;;6.70;99.90;;;;;;5071360;28;20025;-37
2023/01/14 04:54:06;;;;;;;20.33;3.35;;;6.80;99.90;;;;;;5072421;28;20036;-41
2023/01/14 04:56:31;;;;;;;17.40;3.95;;;6.80;99.90;;;;;;5072557;28;20029;-42
2023/01/14 04:59:02;;;;;;;21.80;3.25;;;6.80;99.90;;;;;;5072005;28;20038;-44
2023/01/14 05:01:28;;;;;;;23.55;3.05;;;6.80;99.90;;;;;;5072197;28;20058;-42
2023/01/14 05:03:58;;;;;;;22.65;3.50;;;6.80;99.90;;;;;;5057634;28;20013;-41
2023/01/14 05:06:24;;;;;;;23.70;3.05;;;6.80;99.90;;;;;;5070798;28;20598;-43
2023/01/14 05:08:50;;;;;;;21.23;3.38;;;6.80;99.90;;;;;;5072898;28;20024;-42
2023/01/14 05:11:16;;;;;;;28.33;2.95;;;6.80;99.90;;;;;;5073023;28;20028;-41
2023/01/14 05:13:41;;;;;;;14.45;2.65;;;6.80;99.90;;;;;;5070812;28;20032;-44
2023/01/14 05:16:07;;;;;;;18.00;2.58;;;6.90;99.90;;;;;;5072757;28;20035;-40
2023/01/14 05:18:32;;;;;;;12.95;2.42;;;6.90;99.90;;;;;;5070915;28;20025;-40
2023/01/14 05:20:58;;;;;;;17.20;2.47;;;6.90;99.90;;;;;;5071303;28;20036;-42
2023/01/14 05:23:24;;;;;;;21.77;2.78;;;6.90;99.90;;;;;;5072957;28;20381;-42
2023/01/14 05:25:52;;;;;;;17.45;2.33;;;6.90;99.90;;;;;;5072695;28;20025;-42
2023/01/14 05:28:19;;;;;;;17.00;2.50;;;6.90;99.90;;;;;;5071991;28;20029;-42
2023/01/14 05:30:45;;;;;;;17.45;2.28;;;6.90;99.90;;;;;;5072649;28;20029;-42
2023/01/14 05:33:12;;;;;;;22.48;2.78;;;6.90;99.90;;;;;;5072582;28;20013;-43
2023/01/14 05:35:38;;;;;;;22.00;2.72;;;6.90;99.90;;;;;;5071908;28;20036;-40
2023/01/14 05:38:05;;;;;;;17.92;2.85;;;6.90;99.90;;;;;;5070297;28;20096;-43
2023/01/14 05:40:31;;;;;;;18.52;1.90;;;6.90;99.90;;;;;;5072092;28;20057;-48
2023/01/14 05:45:48;;;;;;;15.90;2.35;;;7.00;99.90;;;;;;5075985;28;20035;-44
2023/01/14 05:48:18;;;;;;;8.85;2.78;;;7.00;99.90;;;;;;5076846;28;20040;-41
2023/01/14 05:50:44;;;;;;;12.80;1.77;;;7.00;99.90;;;;;;5076754;28;20476;-44
2023/01/14 05:53:10;;;;;;;23.23;3.00;;;7.00;99.90;;;;;;5075153;28;20020;-41
2023/01/14 05:55:36;;;;;;;16.92;2.70;;;7.10;99.90;;;;;;5076422;28;20033;-41
2023/01/14 05:58:04;;;;;;;19.98;2.50;;;7.10;99.90;;;;;;5075644;28;20038;-40
2023/01/14 06:08:36;;;;;;;19.23;2.80;;;7.30;99.90;;;;;;5073925;28;20094;-40
2023/01/14 06:11:02;;;;;;;15.35;2.15;;;7.30;99.90;;;;;;5074960;28;20032;-39
2023/01/14 06:13:28;;;;;;;22.58;2.45;;;7.30;99.90;;;;;;5073341;28;20023;-35
2023/01/14 06:15:55;;;;;;;9.35;1.92;;;7.40;99.90;;;;;;5075649;28;20017;-41
2023/01/14 06:18:23;;;;;;;17.20;1.95;;;7.40;99.90;;;;;;5073896;28;20096;-43
2023/01/14 06:20:53;;;;;;;23.42;2.08;;;7.40;99.90;;;;;;5075141;28;20025;-40
2023/01/14 06:23:22;;;;;;;15.95;2.53;;;7.40;99.90;;;;;;5074594;28;20085;-40
2023/01/14 06:25:49;;;;;;;10.23;2.22;;;7.50;99.90;;;;;;5075804;28;20097;-43
2023/01/14 06:28:16;;;;;;;23.40;3.03;;;7.40;99.90;;;;;;5075017;28;20495;-42
2023/01/14 06:30:42;;;;;;;14.80;1.70;;;7.40;99.90;;;;;;5074411;28;20468;-41
2023/01/14 06:33:09;;;;;;;21.00;4.00;;;7.40;99.90;;;;;;5075697;28;20103;-39
2023/01/14 06:35:39;;;;;;;16.95;2.05;;;7.40;99.90;;;;;;5075721;28;20388;-41
2023/01/14 06:38:05;;;;;;;4.85;2.03;;;7.40;99.90;;;;;;5073968;28;20013;-39
2023/01/14 06:40:30;;;;;;;11.30;1.73;;;7.40;99.90;;;;;;5075419;28;20139;-41
2023/01/14 06:42:56;;;;;;;15.60;3.70;;;7.40;99.90;;;;;;5075527;28;20507;-40
2023/01/14 06:45:23;;;;;;;13.95;1.85;;;7.40;99.90;;;;;;5075426;28;20099;-41
2023/01/14 06:47:51;;;;;;;18.20;3.57;;;7.40;99.90;;;;;;5074911;28;20029;-39
2023/01/14 06:50:19;;;;;;;14.95;1.80;;;7.30;99.90;;;;;;5075229;28;20044;-41
2023/01/14 06:52:45;;;;;;;28.13;2.42;;;7.30;99.90;;;;;;5073190;28;20048;-40
2023/01/14 06:55:11;;;;;;;8.57;2.53;;;7.40;99.90;;;;;;5074653;28;20055;-39
2023/01/14 06:57:37;;;;;;;13.55;2.03;;;7.30;99.90;;;;;;5075552;28;20465;-41
2023/01/14 07:00:03;;;;;;;25.00;3.55;;;7.30;99.90;;;;;;5075143;28;20103;-41
2023/01/14 07:02:29;;;;;;;13.15;1.63;;;7.30;99.90;;;;;;5074738;28;20514;-40
2023/01/14 07:04:55;;;;;;;15.88;2.70;;;7.30;99.90;;;;;;5074139;28;20033;-41
2023/01/14 07:07:20;;;;;;;13.38;1.63;;;7.30;99.90;;;;;;5075087;28;20566;-42
2023/01/14 07:09:46;;;;;;;11.40;1.80;;;7.30;99.90;;;;;;5073036;28;20039;-41
2023/01/14 07:12:12;;;;;;;12.95;2.03;;;7.30;99.90;;;;;;5074886;28;20021;-39
2023/01/14 07:14:37;;;;;;;14.20;2.08;;;7.30;99.90;;;;;;5074890;28;20527;-41
2023/01/14 07:17:03;;;;;;;10.23;1.77;;;7.30;99.90;;;;;;5074226;28;20035;-41
2023/01/14 07:19:29;;;;;;;12.88;2.10;;;7.30;99.90;;;;;;5074190;28;20552;-44
2023/01/14 07:21:58;;;;;;;7.55;1.83;;;7.30;99.90;;;;;;5072434;28;20059;-42
2023/01/14 07:24:23;;;;;;;14.25;1.52;;;7.20;99.90;;;;;;5072355;28;20028;-43
2023/01/14 07:26:49;;;;;;;10.35;2.38;;;7.20;99.90;;;;;;5071878;28;20025;-42
2023/01/14 07:29:14;;;;;;;22.40;2.20;;;7.10;99.90;;;;;;5073514;28;20121;-43
2023/01/14 07:31:41;;;;;;;8.18;1.80;;;7.10;99.90;;;;;;5074132;28;20029;-42
2023/01/14 07:34:06;;;;;;;14.77;2.60;;;7.10;99.90;;;;;;5072604;28;20047;-42
2023/01/14 07:36:32;;;;;;;10.32;2.10;;;7.10;99.90;;;;;;5074468;28;20033;-43
2023/01/14 07:38:58;;;;;;;10.63;1.70;;;7.10;99.90;;;;;;5071985;28;20060;-44
2023/01/14 07:41:23;;;;;;;10.40;2.13;;;7.10;99.90;;;;;;5088863;28;20051;-42
2023/01/14 07:43:49;;;;;;;14.90;1.90;;;7.10;99.90;;;;;;5089558;28;20091;-43
2023/01/14 07:46:16;;;;;;;9.07;1.83;;;7.10;99.90;;;;;;5073711;28;20426;-41
2023/01/14 07:48:44;;;;;;;7.65;1.63;;;7.10;99.90;;;;;;5072817;28;20047;-39
2023/01/14 07:51:11;;;;;;;18.73;1.73;;;7.10;99.90;;;;;;5073298;28;20103;-34
2023/01/14 07:53:37;;;;;;;11.77;2.67;;;7.10;99.90;;;;;;5072616;28;20173;-36
2023/01/14 07:56:05;;;;;;;11.30;1.85;;;7.10;99.90;;;;;;5074211;28;20054;-33
2023/01/14 07:58:32;;;;;;;8.90;1.95;;;7.20;99.90;;;;;;5073944;28;20032;-34
2023/01/14 08:00:57;;;;;;;9.77;2.58;;;7.20;99.90;;;;;;5071206;28;20031;-37
2023/01/14 08:03:25;;;;;;;16.63;1.92;;;7.20;99.90;;;;;;5073130;28;20472;-37
2023/01/14 08:05:51;;;;;;;9.38;1.85;;;7.20;99.90;;;;;;5073364;28;20483;-38
2023/01/14 08:08:18;;;;;;;12.48;2.42;;;7.20;99.90;;;;;;5073728;28;20469;-33
2023/01/14 08:10:43;;;;;;;6.90;2.10;;;7.20;99.90;;;;;;5071389;28;20028;-36
2023/01/14 08:13:13;;;;;;;8.77;2.08;;;7.20;99.90;;;;;;5072870;28;20499;-36
2023/01/14 08:15:39;;;;;;;7.47;1.50;;;7.20;99.90;;;;;;5073910;28;20103;-35
2023/01/14 08:18:04;;;;;;;7.95;1.23;;;7.30;99.90;;;;;;5070510;28;20168;-35
2023/01/14 08:20:30;;;;;;;12.95;2.03;;;7.30;99.90;;;;;;5073482;28;20032;-37
2023/01/14 08:22:57;;;;;;;5.10;1.98;;;7.30;99.90;;;;;;5070758;28;20366;-40
2023/01/14 08:25:23;;;;;;;14.15;1.80;;;7.30;99.90;;;;;;5070182;28;20031;-37
2023/01/14 08:27:49;;;;;;;9.75;2.38;;;7.40;99.90;;;;;;5067674;28;20033;-37
2023/01/14 08:30:14;;;;;;;5.43;1.75;;;7.40;99.90;;;;;;5073037;28;20024;-35
2023/01/14 08:32:40;;;;;;;15.90;2.78;;;7.30;99.90;;;;;;5073317;28;20094;-38
2023/01/14 08:35:06;;;;;;;4.78;2.10;;;7.30;99.90;;;;;;5073188;28;20031;-39
2023/01/14 08:37:32;;;;;;;7.82;1.98;;;7.40;99.90;;;;;;5073258;28;20480;-38
2023/01/14 08:39:57;;;;;;;3.33;1.27;;;7.40;99.90;;;;;;5072115;28;20049;-37
2023/01/14 08:42:23;;;;;;;4.85;2.33;;;7.40;99.90;;;;;;5072024;28;20037;-39
2023/01/14 08:44:48;;;;;;;7.45;2.38;;;7.40;99.90;;;;;;5073161;28;20020;-35
2023/01/14 08:47:14;;;;;;;13.43;2.60;;;7.50;99.90;;;;;;5072918;28;20035;-37
2023/01/14 08:49:39;;;;;;;5.60;2.05;;;7.50;99.90;;;;;;5072269;28;20108;-36
2023/01/14 08:52:05;;;;;;;2.22;1.65;;;7.60;99.90;;;;;;5072950;28;20068;-44
2023/01/14 08:54:31;;;;;;;2.88;1.80;;;7.50;99.90;;;;;;5071458;28;20033;-42
2023/01/14 08:56:56;;;;;;;2.95;1.83;;;7.60;99.90;;;;;;5073071;28;20282;-40
2023/01/14 08:59:23;;;;;;;6.07;3.05;;;7.60;99.90;;;;;;5070336;28;20089;-40
2023/01/14 09:01:48;;;;;;;8.45;2.08;;;7.60;99.90;;;;;;5072936;28;20025;-40
2023/01/14 09:04:14;;;;;;;8.13;2.20;;;7.60;99.90;;;;;;5071856;28;20024;-40
2023/01/14 09:17:38;;;;;;;13.38;2.08;;;7.70;99.90;;;;;;5052769;28;20047;-33
2023/01/14 09:20:07;;;;;;;2.90;1.60;;;7.70;99.90;;;;;;5052686;28;20096;-38
2023/01/14 09:22:33;;;;;;;5.85;2.50;;;7.80;99.90;;;;;;5068423;28;20032;-41
2023/01/14 09:24:59;;;;;;;7.50;2.03;;;7.80;99.90;;;;;;5071903;28;20024;-41
2023/01/14 09:27:27;;;;;;;7.32;2.00;;;7.80;99.90;;;;;;5072618;28;20099;-40
2023/01/14 09:29:53;;;;;;;2.33;1.80;;;7.80;99.90;;;;;;5069823;28;20035;-39
2023/01/14 09:32:18;;;;;;;5.75;1.92;;;7.80;99.90;;;;;;5066181;28;20017;-40
2023/01/14 09:34:48;;;;;;;5.13;2.70;;;7.90;99.90;;;;;;5066388;28;20074;-41
2023/01/14 09:37:19;;;;;;;6.88;1.80;;;7.90;99.90;;;;;;5061771;28;20043;-42
2023/01/14 09:39:46;;;;;;;3.85;1.60;;;7.90;99.90;;;;;;5072318;28;20101;-32
2023/01/14 09:42:39;;;;;;;16.65;1.95;;;7.90;99.90;;;;;;5072467;28;20024;-42
2023/01/14 09:45:23;;;;;;;6.55;2.10;;;7.90;99.90;;;;;;5069364;28;20404;-41
2023/01/14 09:47:49;;;;;;;4.93;1.83;;;8.00;99.90;;;;;;5071639;28;20020;-37
2023/01/14 09:50:20;;;;;;;9.68;2.65;;;7.90;99.90;;;;;;5071552;28;20389;-37
2023/01/14 09:53:22;;;;;;;17.27;2.95;;;8.00;99.90;;;;;;5072117;28;20020;-39
2023/01/14 09:55:56;;;;;;;3.85;2.40;;;8.00;99.90;;;;;;5055133;28;20040;-40
2023/01/14 09:58:27;;;;;;;2.47;2.22;;;8.00;99.90;;;;;;5072371;28;20369;-38
2023/01/14 10:01:16;;;;;;;2.42;1.38;;;8.00;99.90;;;;;;5072397;28;20031;-40
2023/01/14 10:03:50;;;;;;;4.22;1.73;;;8.00;99.90;;;;;;5072141;28;20039;-36
2023/01/14 10:06:17;;;;;;;5.35;2.17;;;8.00;99.90;;;;;;5070872;28;20029;-40
2023/01/14 10:08:56;;;;;;;3.58;1.75;;;8.10;99.90;;;;;;5072106;28;20031;-39
2023/01/14 10:11:24;;;;;;;5.00;1.70;;;8.10;99.90;;;;;;5072368;28;20114;-42
2023/01/14 10:13:55;;;;;;;;;;;8.10;99.90;;;;;;5072540;28;20017;-47
2023/01/14 10:16:41;;;;;;;8.90;1.60;;;8.10;99.90;;;;;;5071333;28;20288;-45
2023/01/14 10:19:13;;;;;;;5.10;1.85;;;8.20;99.90;;;;;;5063111;28;20549;-44
2023/01/14 10:21:49;;;;;;;9.02;1.45;;;8.20;99.90;;;;;;5069874;28;20583;-43
2023/01/14 10:24:18;;;;;;;6.78;1.70;;;8.20;99.90;;;;;;5066816;28;20054;-42
2023/01/14 10:26:47;;;;;;;4.45;1.67;;;8.30;99.90;;;;;;5067637;28;20056;-36
2023/01/14 10:29:19;;;;;;;3.17;1.65;;;8.30;99.90;;;;;;5065026;28;20503;-43
2023/01/14 10:31:55;;;;;;;7.93;1.83;;;8.30;99.90;;;;;;5069323;28;20151;-44
2023/01/14 10:34:46;;;;;;;11.90;1.75;;;8.30;99.90;;;;;;5070928;28;20399;-45
2023/01/14 10:37:12;;;;;;;4.63;1.50;;;8.40;99.90;;;;;;5072682;28;20078;-41
2023/01/14 10:39:45;;;;;;;8.80;1.83;;;8.40;99.90;;;;;;5072391;28;20072;-41
2023/01/14 10:42:12;;;;;;;4.32;1.30;;;8.50;99.90;;;;;;5063965;28;20028;-40
2023/01/14 10:44:43;;;;;;;2.30;1.23;;;8.50;99.90;;;;;;5055473;28;20037;-48
2023/01/14 10:47:12;;;;;;;8.30;1.48;;;8.50;99.90;;;;;;5063065;28;20031;-41
2023/01/14 10:49:52;;;;;;;8.82;1.67;;;8.50;99.90;;;;;;5072488;28;20025;-40
2023/01/14 10:52:32;;;;;;;11.57;1.45;;;8.50;99.90;;;;;;5073723;28;20028;-40
2023/01/14 10:55:17;;;;;;;2.28;0.75;;;8.50;99.90;;;;;;5073495;28;20039;-40
2023/01/14 10:58:08;;;;;;;2.70;1.00;;;8.60;99.90;;;;;;5062798;28;20484;-36
2023/01/14 11:00:38;;;;;;;4.68;1.48;;;8.60;99.90;;;;;;5070373;28;20037;-40
2023/01/14 11:03:09;;;;;;;6.65;1.52;;;8.70;99.90;;;;;;5074739;28;20035;-40
2023/01/14 11:05:37;;;;;;;1.17;0.93;;;8.70;99.90;;;;;;5070598;28;20381;-41
2023/01/14 11:08:36;;;;;;;0.90;0.82;;;8.70;99.90;;;;;;5069457;28;20027;-39
2023/01/14 11:11:10;;;;;;;5.70;0.80;;;8.70;99.90;;;;;;5072628;28;20542;-41
2023/01/14 11:13:48;;;;;;;2.72;1.13;;;8.70;99.90;;;;;;5072971;28;20021;-38
2023/01/14 11:16:34;;;;;;;1.55;0.98;;;8.80;99.90;;;;;;5068974;28;20111;-40
2023/01/14 11:19:19;;;;;;;5.93;1.73;;;8.80;99.90;;;;;;5073564;28;20476;-40
2023/01/14 11:21:53;;;;;;;4.03;1.10;;;8.90;99.90;;;;;;5069589;28;20032;-38
2023/01/14 11:24:38;;;;;;;1.50;0.98;;;8.90;99.90;;;;;;5074466;28;20464;-39
2023/01/14 11:27:11;;;;;;;7.40;1.30;;;8.90;99.90;;;;;;5072068;28;20496;-39
2023/01/14 11:29:47;;;;;;;3.25;0.80;;;9.00;99.90;;;;;;5074584;28;20028;-39
2023/01/14 11:32:18;;;;;;;5.13;1.70;;;9.00;99.90;;;;;;5071480;28;20384;-39
2023/01/14 11:34:49;;;;;;;4.90;1.25;;;9.00;99.90;;;;;;5073886;28;20469;-40
2023/01/14 11:37:20;;;;;;;4.10;1.30;;;9.10;99.90;;;;;;5072318;28;20129;-39
2023/01/14 11:39:54;;;;;;;2.95;1.08;;;9.10;99.90;;;;;;5073476;28;20084;-43
2023/01/14 11:42:38;;;;;;;5.47;1.58;;;9.20;99.90;;;;;;5074127;28;20480;-41
2023/01/14 11:45:07;;;;;;;2.60;1.58;;;9.20;99.90;;;;;;5074098;28;20380;-40
2023/01/14 11:47:49;;;;;;;1.05;0.75;;;9.20;99.90;;;;;;5072920;28;20491;-39
2023/01/14 11:50:19;;;;;;;1.75;1.05;;;9.30;99.90;;;;;;5073684;28;20051;-40
2023/01/14 11:52:59;;;;;;;2.80;0.88;;;9.30;99.90;;;;;;5070759;28;20362;-41
2023/01/14 11:55:28;;;;;;;3.63;1.23;;;9.40;99.90;;;;;;5074371;28;20598;-39
2023/01/14 11:58:03;;;;;;;1.52;0.80;;;9.40;99.90;;;;;;5074091;28;20131;-39
2023/01/14 12:00:30;;;;;;;1.42;0.90;;;9.50;99.90;;;;;;5073983;28;20035;-40
2023/01/14 12:03:03;;;;;;;7.70;1.38;;;9.50;99.90;;;;;;5071954;28;20024;-39
2023/01/14 12:05:29;;;;;;;1.88;0.70;;;9.50;99.90;;;;;;5071748;28;20035;-39
2023/01/14 12:07:59;;;;;;;2.05;0.80;;;9.50;99.90;;;;;;5072849;28;20485;-40
2023/01/14 12:10:27;;;;;;;2.72;1.05;;;9.60;99.90;;;;;;5068813;28;20468;-40
2023/01/14 12:18:49;;;;;;;1.90;0.70;;;9.60;99.90;;;;;;5069750;28;20542;-40
2023/01/14 12:21:20;;;;;;;2.05;0.80;;;9.60;99.90;;;;;;5072515;28;20032;-44
2023/01/14 12:23:51;;;;;;;4.30;1.15;;;9.60;99.90;;;;;;5071464;28;20044;-41
2023/01/14 12:26:26;;;;;;;2.45;1.00;;;9.70;99.90;;;;;;5073092;28;20066;-39
2023/01/14 12:28:59;;;;;;;1.30;1.20;;;9.70;99.90;;;;;;5072795;28;20105;-40
2023/01/14 12:31:39;;;;;;;6.93;1.05;;;9.70;99.90;;;;;;5071523;28;20016;-39
2023/01/14 12:34:16;;;;;;;1.83;0.95;;;9.70;99.90;;;;;;5070745;28;20028;-37
2023/01/14 12:36:48;;;;;;;4.97;1.00;;;9.80;99.90;;;;;;5070263;28;20392;-37
2023/01/14 12:45:58;;;;;;;2.25;0.82;;;9.90;99.90;;;;;;5073444;28;20039;-37
2023/01/14 12:48:25;;;;;;;1.67;0.75;;;10.00;99.90;;;;;;5076678;28;20032;-48
2023/01/14 12:51:11;;;;;;;2.97;0.90;;;10.00;99.90;;;;;;5068388;28;20036;-40
2023/01/14 12:53:53;;;;;;;1.77;1.17;;;10.00;99.90;;;;;;5070844;28;20045;-37
2023/01/14 12:56:20;;;;;;;3.53;1.10;;;10.00;99.90;;;;;;5070435;28;20017;-40
2023/01/14 12:58:58;;;;;;;0.60;0.60;;;10.00;99.90;;;;;;5064762;28;20533;-40
2023/01/14 13:01:26;;;;;;;3.07;0.83;;;10.00;99.90;;;;;;5067319;28;20363;-39
2023/01/14 13:03:57;;;;;;;4.32;0.85;;;10.00;99.90;;;;;;5070893;28;20301;-40
2023/01/14 13:06:28;;;;;;;1.40;0.95;;;10.00;99.90;;;;;;5070644;28;20639;-42
2023/01/14 13:08:57;;;;;;;1.80;1.05;;;10.00;99.90;;;;;;5070609;28;20055;-41
2023/01/14 13:11:43;;;;;;;3.45;0.90;;;10.10;99.90;;;;;;5072750;28;20476;-40
2023/01/14 13:14:38;;;;;;;1.23;0.70;;;10.10;99.90;;;;;;5068362;28;20406;-43
2023/01/14 13:17:38;;;;;;;0.98;0.90;;;10.10;99.90;;;;;;5070690;28;20511;-40
2023/01/14 13:20:19;;;;;;;0.70;0.70;;;10.20;99.90;;;;;;5061470;28;20040;-41
2023/01/14 13:23:03;;;;;;;1.67;1.00;;;10.20;99.90;;;;;;5072299;28;20028;-39
2023/01/14 13:25:36;;;;;;;2.67;1.08;;;10.20;99.90;;;;;;5072719;28;20039;-39
2023/01/14 13:28:15;;;;;;;4.43;1.00;;;10.20;99.90;;;;;;5051321;28;20029;-40
2023/01/14 13:30:43;;;;;;;1.38;1.20;;;10.20;99.90;;;;;;5062450;28;20051;-39
2023/01/14 13:33:23;;;;;;;1.58;1.23;;;10.20;99.90;;;;;;5072389;28;20529;-36
2023/01/14 13:36:10;;;;;;;3.05;0.90;;;10.20;99.90;;;;;;5062504;28;20025;-40
2023/01/14 13:38:42;;;;;;;1.40;1.10;;;10.20;99.90;;;;;;5066699;28;20381;-39
2023/01/14 13:41:10;;;;;;;0.95;0.93;;;10.30;99.90;;;;;;5069068;28;20053;-40
2023/01/14 13:43:50;;;;;;;2.42;1.15;;;10.30;99.90;;;;;;5068927;28;20506;-38
2023/01/14 13:46:28;;;;;;;0.75;0.75;;;10.30;99.90;;;;;;5070066;28;20118;-40
2023/01/14 13:48:58;;;;;;;;;;;10.40;99.90;;;;;;5070685;28;20094;-41
2023/01/14 13:51:44;;;;;;;1.23;1.10;;;10.40;99.90;;;;;;5066004;28;19920;-44
2023/01/14 13:54:10;;;;;;;2.25;0.98;;;10.40;99.90;;;;;;5067217;28;20047;-43